Current Weather

Burnet Muni Kate Craddock Fld

Burnet, Texas (KBMQ)

Report from: Friday, September 22, 2023 1:53 PM CDT
Current time: Friday, September 22, 2023 2:16 PM CDT

Nearby weather
Weather history
Weather forecast

Temperature33.9°C (93.0°F)
Heat index36.4°C (97.5°F)
Dew point20.0°C (68.0°F)
Winds 11 kts (5.7 m/s, 12.7 mph) South (190°)
Wind gusts 19 kts (9.8 m/s, 21.9 mph)
Visibility10 mi. (16.1 km)
Clouds Sky clear
Altimeter29.96 in.Hg (1015 mB)
Relative humidity44 %
Density altitude2,488 ft. (758 m)
Sea-level pressure101.3 kPa (1013 mB, 29.90 in.Hg)
Remarks Fully automated report
Automated weather observing station with precipitation discriminator
Flight conditions Visual Meteorological Conditions
Raw dataKBMQ 221853Z AUTO 19011G19KT 10SM CLR 34/20 A2996 RMK AO2 SLP126 T03390200
An unhandled exception has occurred. See browser dev tools for details. Reload 🗙